createdAt,value
2023-03-27T00:00:13.538Z,98739.15
2023-03-27T00:03:03.309Z,98730.92
2023-03-27T00:05:31.745Z,98725.20
2023-03-27T00:08:01.885Z,98723.70
2023-03-27T00:10:30.261Z,98730.09
2023-03-27T00:12:59.296Z,98732.52
2023-03-27T00:15:27.681Z,98730.98
2023-03-27T00:17:56.242Z,98724.79
2023-03-27T00:20:26.482Z,98723.48
2023-03-27T00:22:56.663Z,98718.54
2023-03-27T00:25:29.543Z,98718.31
2023-03-27T00:28:01.395Z,98715.65
2023-03-27T00:30:31.446Z,98713.71
2023-03-27T00:32:59.981Z,98711.27
2023-03-27T00:35:30.096Z,98708.63
2023-03-27T00:37:59.139Z,98704.85
2023-03-27T00:40:28.348Z,98703.38
2023-03-27T00:42:58.028Z,98702.25
2023-03-27T00:45:32.613Z,98692.92
2023-03-27T00:48:05.260Z,98690.92
2023-03-27T00:50:37.327Z,98684.48
2023-03-27T00:53:12.470Z,98682.80
2023-03-27T00:55:44.022Z,98674.02
2023-03-27T00:58:29.755Z,98676.51
2023-03-27T01:00:58.725Z,98675.22
2023-03-27T01:03:33.465Z,98671.30
2023-03-27T01:06:02.940Z,98667.33
2023-03-27T01:08:33.925Z,98665.50
2023-03-27T01:11:14.461Z,98657.21
2023-03-27T01:13:51.884Z,98655.30
2023-03-27T01:16:29.427Z,98651.11
2023-03-27T01:19:39.520Z,98648.14
2023-03-27T01:22:22.992Z,98646.80
2023-03-27T01:25:01.228Z,98638.89
2023-03-27T01:27:42.118Z,98637.20
2023-03-27T01:30:23.355Z,98630.77
2023-03-27T01:33:15.000Z,98634.41
2023-03-27T01:35:49.491Z,98631.80
2023-03-27T01:39:06.022Z,98632.01
2023-03-27T01:41:40.630Z,98633.16
2023-03-27T01:44:27.241Z,98630.85
2023-03-27T01:47:17.883Z,98627.35
2023-03-27T01:50:15.474Z,98629.52
2023-03-27T01:52:47.645Z,98630.14
2023-03-27T01:55:19.524Z,98628.01
2023-03-27T01:57:54.358Z,98626.24
2023-03-27T02:00:24.481Z,98624.02
2023-03-27T02:03:18.253Z,98624.96
2023-03-27T02:06:00.829Z,98625.60
2023-03-27T02:09:04.591Z,98623.65
2023-03-27T02:11:38.416Z,98620.29
2023-03-27T02:14:20.284Z,98619.91
2023-03-27T02:16:54.701Z,98616.13
2023-03-27T02:19:30.295Z,98619.39
2023-03-27T02:21:59.335Z,98623.13
2023-03-27T02:24:28.176Z,98625.95
2023-03-27T02:27:27.776Z,98622.39
2023-03-27T02:30:07.322Z,98621.38
2023-03-27T02:33:23.601Z,98619.47
2023-03-27T02:36:12.141Z,98621.18
2023-03-27T02:38:42.355Z,98615.91
2023-03-27T02:41:26.756Z,98615.35
2023-03-27T02:44:13.411Z,98612.58
2023-03-27T02:47:29.006Z,98617.52
2023-03-27T02:50:05.750Z,98616.27
2023-03-27T02:52:39.767Z,98616.91
2023-03-27T02:55:34.687Z,98615.52
2023-03-27T02:58:11.303Z,98611.77
2023-03-27T03:01:01.100Z,98605.52
2023-03-27T03:03:42.168Z,98610.92
2023-03-27T03:06:22.265Z,98613.44
2023-03-27T03:08:50.954Z,98609.91
2023-03-27T03:11:21.861Z,98605.72
2023-03-27T03:13:50.195Z,98606.08
2023-03-27T03:16:19.290Z,98600.65
2023-03-27T03:18:47.834Z,98596.52
2023-03-27T03:21:16.700Z,98595.02
2023-03-27T03:23:58.296Z,98595.35
2023-03-27T03:26:28.148Z,98593.20
2023-03-27T03:29:00.257Z,98585.70
2023-03-27T03:31:43.654Z,98584.38
2023-03-27T03:34:14.624Z,98580.29
2023-03-27T03:36:45.232Z,98580.63
2023-03-27T03:39:13.742Z,98576.21
2023-03-27T03:41:43.368Z,98572.20
2023-03-27T03:44:12.092Z,98575.13
2023-03-27T03:46:42.260Z,98576.90
2023-03-27T03:49:11.012Z,98578.40
2023-03-27T03:51:39.385Z,98579.39
2023-03-27T03:54:09.814Z,98582.15
2023-03-27T03:56:41.904Z,98580.66
2023-03-27T03:59:12.135Z,98585.52
2023-03-27T04:01:58.985Z,98589.73
2023-03-27T04:04:32.238Z,98590.95
2023-03-27T04:07:07.275Z,98591.80
2023-03-27T04:09:38.032Z,98586.77
2023-03-27T04:12:18.697Z,98592.99
2023-03-27T04:15:01.893Z,98593.11
2023-03-27T04:18:03.069Z,98589.71
2023-03-27T04:20:34.952Z,98587.30
2023-03-27T04:23:05.137Z,98583.41
2023-03-27T04:25:38.142Z,98582.90
2023-03-27T04:28:07.300Z,98580.46
2023-03-27T04:30:39.298Z,98581.39
2023-03-27T04:33:46.903Z,98579.81
2023-03-27T04:36:30.182Z,98573.97
2023-03-27T04:39:07.010Z,98578.14
2023-03-27T04:41:35.358Z,98576.02
2023-03-27T04:44:03.844Z,98576.11
2023-03-27T04:46:32.305Z,98574.41
2023-03-27T04:49:05.058Z,98572.90
2023-03-27T04:51:51.489Z,98569.85
2023-03-27T04:54:19.935Z,98571.45
2023-03-27T04:56:49.190Z,98571.84
2023-03-27T04:59:18.163Z,98569.91
2023-03-27T05:01:51.741Z,98569.60
2023-03-27T05:04:40.981Z,98568.98
2023-03-27T05:07:13.714Z,98568.64
2023-03-27T05:09:42.714Z,98560.58
2023-03-27T05:12:12.160Z,98554.95
2023-03-27T05:14:50.080Z,98562.86
2023-03-27T05:17:45.619Z,98562.75
2023-03-27T05:20:17.404Z,98553.42
2023-03-27T05:22:46.015Z,98561.36
2023-03-27T05:25:25.908Z,98554.32
2023-03-27T05:27:55.004Z,98553.05
2023-03-27T05:30:25.313Z,98541.11
2023-03-27T05:33:00.970Z,98549.05
2023-03-27T05:35:30.884Z,98551.70
2023-03-27T05:38:01.608Z,98544.84
2023-03-27T05:40:48.316Z,98547.86
2023-03-27T05:43:19.992Z,98546.05
2023-03-27T05:45:59.252Z,98543.10
2023-03-27T05:48:28.156Z,98542.87
2023-03-27T05:51:03.115Z,98541.67
2023-03-27T05:53:32.609Z,98536.89
2023-03-27T05:56:13.038Z,98529.59
2023-03-27T05:58:50.992Z,98530.95
2023-03-27T06:01:21.097Z,98532.55
2023-03-27T06:03:55.426Z,98527.75
2023-03-27T06:06:29.163Z,98525.23
2023-03-27T06:09:00.149Z,98520.75
2023-03-27T06:11:29.220Z,98519.02
2023-03-27T06:13:58.945Z,98527.74
2023-03-27T06:16:43.173Z,98519.44
2023-03-27T06:19:31.896Z,98511.08
2023-03-27T06:22:00.307Z,98504.84
2023-03-27T06:24:29.493Z,98497.95
2023-03-27T06:27:01.461Z,98498.17
2023-03-27T06:29:31.638Z,98495.90
2023-03-27T06:32:02.036Z,98491.73
2023-03-27T06:34:35.428Z,98491.18
2023-03-27T06:37:13.552Z,98487.37
2023-03-27T06:39:43.375Z,98485.25
2023-03-27T06:42:14.173Z,98471.14
2023-03-27T06:45:08.265Z,98475.15
2023-03-27T06:48:21.225Z,98470.98
2023-03-27T06:50:53.500Z,98468.77
2023-03-27T06:55:54.846Z,98465.99
2023-03-27T06:58:24.452Z,98461.95
2023-03-27T07:00:55.900Z,98453.07
2023-03-27T07:03:26.540Z,98451.70
2023-03-27T07:06:27.313Z,98450.55
2023-03-27T07:09:01.688Z,98451.61
2023-03-27T07:11:32.211Z,98451.36
2023-03-27T07:14:04.605Z,98450.28
2023-03-27T07:16:33.430Z,98457.89
2023-03-27T07:19:02.637Z,98448.45
2023-03-27T07:21:36.287Z,98450.45
2023-03-27T07:24:08.066Z,98453.56
2023-03-27T07:26:39.554Z,98454.55
2023-03-27T07:29:24.070Z,98454.05
2023-03-27T07:32:02.839Z,98449.48
2023-03-27T07:34:53.179Z,98444.56
2023-03-27T07:37:23.172Z,98439.23
2023-03-27T07:40:16.544Z,98438.70
2023-03-27T07:42:54.018Z,98438.05
2023-03-27T07:45:24.227Z,98434.20
2023-03-27T07:48:04.444Z,98429.59
2023-03-27T07:50:33.673Z,98421.93
2023-03-27T07:53:03.122Z,98422.54
2023-03-27T07:55:31.939Z,98427.07
2023-03-27T07:58:07.131Z,98420.37
2023-03-27T08:00:36.705Z,98417.56
2023-03-27T08:03:12.081Z,98416.30
2023-03-27T08:05:45.376Z,98419.65
2023-03-27T08:08:16.500Z,98409.23
2023-03-27T08:10:59.468Z,98409.13
2023-03-27T08:13:32.255Z,98404.63
2023-03-27T08:16:04.667Z,98399.33
2023-03-27T08:18:33.801Z,98394.89
2023-03-27T08:21:03.493Z,98391.13
2023-03-27T08:23:34.134Z,98385.35
2023-03-27T08:26:06.178Z,98368.23
2023-03-27T08:28:43.042Z,98374.04
2023-03-27T08:31:14.354Z,98368.58
2023-03-27T08:33:58.377Z,98363.70
2023-03-27T08:36:29.604Z,98352.05
2023-03-27T08:38:58.777Z,98346.37
2023-03-27T08:41:42.646Z,98342.19
2023-03-27T08:44:17.964Z,98334.46
2023-03-27T08:47:14.807Z,98334.38
2023-03-27T08:49:53.140Z,98327.45
2023-03-27T08:52:29.166Z,98316.63
2023-03-27T08:55:11.119Z,98303.11
2023-03-27T08:57:44.991Z,98301.58
2023-03-27T09:00:23.844Z,98295.88
2023-03-27T09:03:08.958Z,98291.04
2023-03-27T09:06:01.572Z,98282.08
2023-03-27T09:08:56.828Z,98285.11
2023-03-27T09:11:45.851Z,98285.75
2023-03-27T09:14:44.495Z,98289.44
2023-03-27T09:17:36.572Z,98287.05
2023-03-27T09:20:23.978Z,98287.25
2023-03-27T09:22:58.198Z,98283.74
2023-03-27T09:26:00.353Z,98277.14
2023-03-27T09:29:00.789Z,98272.80
2023-03-27T09:31:34.701Z,98267.45
2023-03-27T09:34:11.968Z,98261.36
2023-03-27T09:36:41.978Z,98260.49
2023-03-27T09:39:17.637Z,98263.04
2023-03-27T09:41:52.690Z,98257.28
2023-03-27T09:44:26.216Z,98254.40
2023-03-27T09:47:06.288Z,98256.98
2023-03-27T09:49:36.191Z,98249.41
2023-03-27T09:52:08.501Z,98258.70
2023-03-27T09:55:03.919Z,98262.05
2023-03-27T09:57:41.512Z,98259.51
2023-03-27T10:00:31.982Z,98259.26
2023-03-27T10:03:08.232Z,98261.05
2023-03-27T10:05:41.842Z,98261.75
2023-03-27T10:08:40.069Z,98261.41
2023-03-27T10:11:17.035Z,98261.27
2023-03-27T10:13:52.383Z,98261.65
2023-03-27T10:16:22.905Z,98259.19
2023-03-27T10:19:00.415Z,98258.33
2023-03-27T10:21:34.953Z,98263.11
2023-03-27T10:24:33.877Z,98259.98
2023-03-27T10:27:19.222Z,98258.95
2023-03-27T10:30:28.037Z,98256.17
2023-03-27T10:33:02.615Z,98257.73
2023-03-27T10:35:52.497Z,98256.59
2023-03-27T10:38:33.772Z,98254.36
2023-03-27T10:41:28.110Z,98248.57
2023-03-27T10:43:59.305Z,98246.98
2023-03-27T10:46:30.577Z,98250.60
2023-03-27T10:49:19.010Z,98240.34
2023-03-27T10:52:22.044Z,98246.27
2023-03-27T10:55:23.499Z,98252.91
2023-03-27T10:57:58.993Z,98247.09
2023-03-27T11:01:05.536Z,98247.77
2023-03-27T11:03:43.694Z,98247.53
2023-03-27T11:06:16.507Z,98243.96
2023-03-27T11:09:06.085Z,98240.70
2023-03-27T11:11:43.353Z,98244.31
2023-03-27T11:14:21.498Z,98237.52
2023-03-27T11:17:13.092Z,98240.69
2023-03-27T11:20:07.689Z,98241.81
2023-03-27T11:23:04.732Z,98243.42
2023-03-27T11:25:52.973Z,98243.21
2023-03-27T11:28:41.747Z,98241.92
2023-03-27T11:31:12.288Z,98239.39
2023-03-27T11:33:49.854Z,98222.16
2023-03-27T11:36:33.244Z,98221.86
2023-03-27T11:39:36.570Z,98211.51
2023-03-27T11:42:27.083Z,98204.65
2023-03-27T11:45:18.887Z,98198.91
2023-03-27T11:48:16.660Z,98194.36
2023-03-27T11:51:12.109Z,98196.36
2023-03-27T11:54:08.992Z,98196.27
2023-03-27T11:56:56.578Z,98201.13
2023-03-27T11:59:58.856Z,98193.02
2023-03-27T12:02:42.711Z,98183.20
2023-03-27T12:05:46.887Z,98186.70
2023-03-27T12:08:23.154Z,98182.88
2023-03-27T12:10:53.532Z,98181.05
2023-03-27T12:13:41.928Z,98180.20
2023-03-27T12:16:42.761Z,98175.48
2023-03-27T12:19:46.716Z,98162.20
2023-03-27T12:22:43.846Z,98158.62
2023-03-27T12:25:43.033Z,98149.63
2023-03-27T12:28:40.751Z,98147.97
2023-03-27T12:31:41.864Z,98132.41
2023-03-27T12:34:38.943Z,98121.31
2023-03-27T12:37:12.590Z,98113.71
2023-03-27T12:39:57.509Z,98108.72
2023-03-27T12:42:44.228Z,98104.29
2023-03-27T12:45:28.212Z,98079.19
2023-03-27T12:48:20.448Z,98080.02
2023-03-27T12:50:53.051Z,98072.33
2023-03-27T12:53:27.555Z,98068.04
2023-03-27T12:56:18.150Z,98069.09
2023-03-27T12:58:51.946Z,98060.96
2023-03-27T13:01:51.859Z,98059.95
2023-03-27T13:04:44.072Z,98066.75
2023-03-27T13:07:37.188Z,98054.24
2023-03-27T13:10:33.357Z,98027.23
2023-03-27T13:13:17.360Z,98021.88
2023-03-27T13:16:05.061Z,98011.70
2023-03-27T13:19:06.683Z,98000.66
2023-03-27T13:21:45.032Z,97980.73
2023-03-27T13:24:32.520Z,97969.93
2023-03-27T13:27:49.423Z,97963.66
2023-03-27T13:30:49.141Z,97954.81
2023-03-27T13:34:11.213Z,97939.15
2023-03-27T13:36:49.138Z,97925.16
2023-03-27T13:39:25.127Z,97929.92
2023-03-27T13:42:07.353Z,97927.00
2023-03-27T13:45:21.204Z,97918.70
2023-03-27T13:48:26.646Z,97917.99
2023-03-27T13:51:27.269Z,97912.81
2023-03-27T13:54:33.102Z,97914.24
2023-03-27T13:57:11.989Z,97915.75
2023-03-27T14:00:08.578Z,97914.02
2023-03-27T14:02:51.997Z,97923.66
2023-03-27T14:05:43.347Z,97923.14
2023-03-27T14:08:43.098Z,97917.08
2023-03-27T14:11:32.893Z,97915.16
2023-03-27T14:14:33.711Z,97911.52
2023-03-27T14:17:05.074Z,97914.80
2023-03-27T14:20:07.432Z,97915.52
2023-03-27T14:22:50.640Z,97910.59
2023-03-27T14:25:24.518Z,97911.36
2023-03-27T14:27:59.807Z,97915.63
2023-03-27T14:30:49.652Z,97913.60
2023-03-27T14:33:39.515Z,97912.55
2023-03-27T14:36:16.836Z,97912.73
2023-03-27T14:38:47.521Z,97912.84
2023-03-27T14:41:28.249Z,97904.96
2023-03-27T14:44:04.385Z,97902.08
2023-03-27T14:46:36.531Z,97897.02
2023-03-27T14:49:12.149Z,97895.27
2023-03-27T14:51:47.738Z,97886.21
2023-03-27T14:54:27.748Z,97876.39
2023-03-27T14:57:06.607Z,97879.86
2023-03-27T14:59:46.949Z,97873.70
2023-03-27T15:02:21.950Z,97870.38
2023-03-27T15:04:54.509Z,97855.80
2023-03-27T15:07:28.895Z,97855.94
2023-03-27T15:10:36.273Z,97847.79
2023-03-27T15:13:39.969Z,97847.86
2023-03-27T15:16:19.487Z,97840.92
2023-03-27T15:18:58.962Z,97837.56
2023-03-27T15:21:45.268Z,97833.66
2023-03-27T15:24:21.863Z,97835.28
2023-03-27T15:26:51.086Z,97828.63
2023-03-27T15:29:27.608Z,97825.69
2023-03-27T15:31:57.013Z,97821.39
2023-03-27T15:34:57.029Z,97817.08
2023-03-27T15:37:28.824Z,97814.45
2023-03-27T15:40:15.844Z,97809.05
2023-03-27T15:42:50.647Z,97806.91
2023-03-27T15:45:23.913Z,97809.41
2023-03-27T15:48:07.125Z,97804.35
2023-03-27T15:50:35.632Z,97801.37
2023-03-27T15:53:04.088Z,97794.11
2023-03-27T15:55:42.536Z,97790.58
2023-03-27T15:58:16.548Z,97788.91
2023-03-27T16:00:47.850Z,97789.56
2023-03-27T16:03:21.503Z,97789.21
2023-03-27T16:05:56.759Z,97789.70
2023-03-27T16:08:38.416Z,97788.54
2023-03-27T16:11:07.369Z,97789.24
2023-03-27T16:13:43.915Z,97786.48
2023-03-27T16:16:23.191Z,97787.31
2023-03-27T16:18:52.211Z,97789.48
2023-03-27T16:21:23.442Z,97788.70
2023-03-27T16:23:51.957Z,97791.34
2023-03-27T16:26:23.684Z,97785.23
2023-03-27T16:28:55.390Z,97783.23
2023-03-27T16:31:24.128Z,97788.77
2023-03-27T16:33:56.005Z,97785.08
2023-03-27T16:36:33.885Z,97786.21
2023-03-27T16:39:04.802Z,97789.96
2023-03-27T16:41:33.402Z,97793.63
2023-03-27T16:44:02.114Z,97790.65
2023-03-27T16:46:31.838Z,97791.23
2023-03-27T16:49:00.296Z,97791.88
2023-03-27T16:51:29.892Z,97792.23
2023-03-27T16:53:58.995Z,97791.74
2023-03-27T16:56:28.044Z,97788.88
2023-03-27T16:58:56.720Z,97793.33
2023-03-27T17:01:25.440Z,97789.40
2023-03-27T17:03:54.250Z,97788.84
2023-03-27T17:06:23.224Z,97786.98
2023-03-27T17:08:55.948Z,97790.92
2023-03-27T17:11:24.473Z,97789.73
2023-03-27T17:13:53.214Z,97792.64
2023-03-27T17:16:21.922Z,97790.55
2023-03-27T17:18:50.435Z,97792.55
2023-03-27T17:21:19.347Z,97791.99
2023-03-27T17:23:48.974Z,97789.98
2023-03-27T17:26:31.516Z,97787.03
2023-03-27T17:29:00.241Z,97785.12
2023-03-27T17:31:30.794Z,97782.11
2023-03-27T17:34:00.003Z,97784.05
2023-03-27T17:36:41.156Z,97788.10
2023-03-27T17:39:13.478Z,97788.63
2023-03-27T17:41:42.215Z,97797.32
2023-03-27T17:44:12.082Z,97788.30
2023-03-27T17:46:41.309Z,97791.54
2023-03-27T17:49:10.235Z,97803.58
2023-03-27T17:51:39.177Z,97803.36
2023-03-27T17:54:07.962Z,97801.35
2023-03-27T17:56:37.105Z,97801.80
2023-03-27T17:59:06.255Z,97807.83
2023-03-27T18:01:35.346Z,97809.98
2023-03-27T18:04:04.382Z,97808.38
2023-03-27T18:06:32.824Z,97806.40
2023-03-27T18:09:01.530Z,97806.94
2023-03-27T18:11:30.144Z,97809.46
2023-03-27T18:13:58.607Z,97808.27
2023-03-27T18:16:27.252Z,97807.86
2023-03-27T18:18:57.736Z,97809.88
2023-03-27T18:21:26.153Z,97808.08
2023-03-27T18:23:59.688Z,97808.86
2023-03-27T18:26:28.885Z,97810.66
2023-03-27T18:28:57.961Z,97812.61
2023-03-27T18:31:26.660Z,97817.27
2023-03-27T18:33:55.768Z,97818.96
2023-03-27T18:36:24.970Z,97821.39
2023-03-27T18:38:54.564Z,97826.05
2023-03-27T18:41:23.433Z,97821.43
2023-03-27T18:43:55.407Z,97822.91
2023-03-27T18:46:24.805Z,97822.24
2023-03-27T18:48:54.892Z,97824.73
2023-03-27T18:51:24.213Z,97828.95
2023-03-27T18:53:52.944Z,97832.33
2023-03-27T18:56:21.785Z,97830.89
2023-03-27T18:58:50.465Z,97841.27
2023-03-27T19:01:19.573Z,97838.18
2023-03-27T19:03:51.807Z,97838.54
2023-03-27T19:06:21.449Z,97842.12
2023-03-27T19:08:51.385Z,97846.33
2023-03-27T19:11:19.758Z,97848.89
2023-03-27T19:14:19.816Z,97858.24
2023-03-27T19:17:06.370Z,97869.69
2023-03-27T19:19:43.977Z,97873.36
2023-03-27T19:22:14.362Z,97880.98
2023-03-27T19:24:47.071Z,97884.19
2023-03-27T19:27:23.201Z,97888.66
2023-03-27T19:29:54.033Z,97889.20
2023-03-27T19:32:24.425Z,97884.12
2023-03-27T19:34:53.699Z,97885.10
2023-03-27T19:37:22.305Z,97875.02
2023-03-27T19:39:51.537Z,97882.38
2023-03-27T19:42:20.098Z,97878.56
2023-03-27T19:44:49.047Z,97885.23
2023-03-27T19:47:17.456Z,97885.70
2023-03-27T19:49:46.374Z,97884.52
2023-03-27T19:52:36.274Z,97885.44
2023-03-27T19:55:05.136Z,97881.41
2023-03-27T19:57:33.520Z,97885.48
2023-03-27T20:00:01.943Z,97879.13
2023-03-27T20:02:30.797Z,97879.45
2023-03-27T20:04:59.300Z,97874.08
2023-03-27T20:07:27.777Z,97874.94
2023-03-27T20:09:56.387Z,97874.29
2023-03-27T20:12:25.200Z,97876.06
2023-03-27T20:15:02.988Z,97868.17
2023-03-27T20:17:43.111Z,97870.21
2023-03-27T20:20:12.281Z,97864.30
2023-03-27T20:22:54.361Z,97863.70
2023-03-27T20:25:28.335Z,97855.59
2023-03-27T20:27:56.740Z,97851.51
2023-03-27T20:30:25.684Z,97846.99
2023-03-27T20:32:54.546Z,97844.09
2023-03-27T20:35:25.059Z,97840.07
2023-03-27T20:37:58.076Z,97835.34
2023-03-27T20:40:31.432Z,97844.10
2023-03-27T20:43:06.262Z,97838.02
2023-03-27T20:45:34.738Z,97834.86
2023-03-27T20:48:03.458Z,97826.16
2023-03-27T20:50:35.503Z,97824.27
2023-03-27T20:53:04.993Z,97817.98
2023-03-27T20:55:39.258Z,97813.75
2023-03-27T20:58:12.804Z,97812.52
2023-03-27T21:00:43.864Z,97806.88
2023-03-27T21:03:12.465Z,97803.92
2023-03-27T21:05:41.472Z,97804.30
2023-03-27T21:08:10.324Z,97802.96
2023-03-27T21:10:39.253Z,97801.25
2023-03-27T21:13:08.320Z,97802.30
2023-03-27T21:15:36.748Z,97798.98
2023-03-27T21:18:07.401Z,97790.93
2023-03-27T21:20:35.812Z,97789.10
2023-03-27T21:23:04.349Z,97785.39
2023-03-27T21:25:34.948Z,97781.15
2023-03-27T21:28:06.563Z,97774.06
2023-03-27T21:30:46.459Z,97767.52
2023-03-27T21:33:17.161Z,97766.66
2023-03-27T21:35:47.243Z,97763.11
2023-03-27T21:38:16.482Z,97762.63
2023-03-27T21:40:47.850Z,97756.67
2023-03-27T21:43:16.434Z,97748.56
2023-03-27T21:45:47.032Z,97749.03
2023-03-27T21:48:15.762Z,97752.38
2023-03-27T21:50:44.499Z,97753.39
2023-03-27T21:53:13.790Z,97746.19
2023-03-27T21:55:42.758Z,97743.73
2023-03-27T21:58:11.339Z,97744.48
2023-03-27T22:00:39.817Z,97735.41
2023-03-27T22:03:08.253Z,97738.35
2023-03-27T22:05:40.523Z,97733.79
2023-03-27T22:08:09.048Z,97729.33
2023-03-27T22:10:37.687Z,97731.27
2023-03-27T22:13:06.870Z,97726.65
2023-03-27T22:15:35.697Z,97723.48
2023-03-27T22:18:04.281Z,97719.45
2023-03-27T22:20:32.923Z,97718.55
2023-03-27T22:23:01.510Z,97719.26
2023-03-27T22:25:30.089Z,97719.94
2023-03-27T22:28:00.036Z,97715.22
2023-03-27T22:30:30.241Z,97716.83
2023-03-27T22:32:58.779Z,97717.45
2023-03-27T22:35:27.454Z,97715.27
2023-03-27T22:37:56.184Z,97714.39
2023-03-27T22:40:24.711Z,97708.39
2023-03-27T22:42:53.333Z,97704.20
2023-03-27T22:45:21.743Z,97705.91
2023-03-27T22:47:50.218Z,97706.71
2023-03-27T22:50:18.547Z,97703.33
2023-03-27T22:52:47.634Z,97705.55
2023-03-27T22:55:16.152Z,97705.66
2023-03-27T22:57:44.640Z,97705.66
2023-03-27T23:00:13.947Z,97700.17
2023-03-27T23:02:42.552Z,97703.40
2023-03-27T23:05:11.266Z,97700.98
2023-03-27T23:07:39.660Z,97698.79
2023-03-27T23:10:08.826Z,97701.64
2023-03-27T23:12:37.270Z,97703.19
2023-03-27T23:15:06.176Z,97701.84
2023-03-27T23:17:34.549Z,97700.71
2023-03-27T23:20:02.944Z,97698.25
2023-03-27T23:22:31.370Z,97702.77
2023-03-27T23:24:59.706Z,97703.48
2023-03-27T23:27:28.153Z,97704.38
2023-03-27T23:29:56.631Z,97707.33
2023-03-27T23:32:25.214Z,97710.29
2023-03-27T23:34:53.694Z,97708.45
2023-03-27T23:37:22.692Z,97707.71
2023-03-27T23:39:51.282Z,97710.45
2023-03-27T23:42:19.750Z,97718.13
2023-03-27T23:44:48.119Z,97712.70
2023-03-27T23:47:16.628Z,97723.27
2023-03-27T23:49:45.293Z,97732.40
2023-03-27T23:52:14.117Z,97729.50
2023-03-27T23:54:42.664Z,97728.27
2023-03-27T23:57:11.212Z,97734.06
2023-03-27T23:59:39.730Z,97762.13
